createdAt,value
2018-08-10T00:01:10.415Z,96970.67
2018-08-10T00:03:39.818Z,96973.11
2018-08-10T00:06:09.272Z,96977.14
2018-08-10T00:08:38.674Z,96950.56
2018-08-10T00:11:08.445Z,97001.62
2018-08-10T00:13:37.857Z,96976.51
2018-08-10T00:16:07.271Z,96978.72
2018-08-10T00:18:36.671Z,96956.91
2018-08-10T00:21:06.100Z,96989.25
2018-08-10T00:23:35.560Z,96882.59
2018-08-10T00:26:04.988Z,97007.92
2018-08-10T00:28:34.379Z,97003.05
2018-08-10T00:31:03.820Z,97022.20
2018-08-10T00:33:33.564Z,97023.45
2018-08-10T00:36:02.970Z,96994.73
2018-08-10T00:38:32.368Z,97032.02
2018-08-10T00:41:01.819Z,97010.76
2018-08-10T00:43:31.246Z,97020.75
2018-08-10T00:46:00.685Z,97041.26
2018-08-10T00:48:30.084Z,97047.03
2018-08-10T00:50:59.532Z,97088.09
2018-08-10T00:53:28.970Z,97047.90
2018-08-10T00:55:58.358Z,97056.88
2018-08-10T00:58:27.768Z,97060.65
2018-08-10T01:00:57.160Z,97076.48
2018-08-10T01:03:26.572Z,97085.02
2018-08-10T01:05:55.993Z,97054.28
2018-08-10T01:08:25.409Z,97067.66
2018-08-10T01:10:54.820Z,97096.92
2018-08-10T01:13:24.295Z,97075.38
2018-08-10T01:15:53.614Z,97083.30
2018-08-10T01:18:23.017Z,97064.63
2018-08-10T01:20:52.466Z,97085.55
2018-08-10T01:23:21.866Z,97049.73
2018-08-10T01:25:51.277Z,97061.14
2018-08-10T01:28:20.730Z,97106.00
2018-08-10T01:30:50.042Z,97079.83
2018-08-10T01:33:19.411Z,97115.55
2018-08-10T01:35:48.787Z,97092.10
2018-08-10T01:38:18.114Z,97111.20
2018-08-10T01:40:47.463Z,97098.45
2018-08-10T01:43:16.799Z,97100.42
2018-08-10T01:45:46.161Z,97102.45
2018-08-10T01:48:15.529Z,97073.41
2018-08-10T01:50:44.864Z,97100.69
2018-08-10T01:53:14.202Z,97084.75
2018-08-10T01:55:43.569Z,97120.78
2018-08-10T01:58:12.966Z,97103.83
2018-08-10T02:00:42.302Z,97108.67
2018-08-10T02:03:11.643Z,97122.16
2018-08-10T02:05:41.013Z,97125.67
2018-08-10T02:08:10.336Z,97162.02
2018-08-10T02:10:39.670Z,97130.25
2018-08-10T02:13:09.007Z,97160.42
2018-08-10T02:15:38.360Z,97138.10
2018-08-10T02:18:08.952Z,97156.73
2018-08-10T02:20:38.312Z,97149.42
2018-08-10T02:23:07.648Z,97135.86
2018-08-10T02:25:37.019Z,97155.74
2018-08-10T02:28:06.383Z,97162.73
2018-08-10T02:30:35.748Z,97061.79
2018-08-10T02:33:05.159Z,97162.67
2018-08-10T02:35:34.512Z,97198.95
2018-08-10T02:38:03.888Z,97189.44
2018-08-10T02:40:33.276Z,97168.46
2018-08-10T02:43:02.656Z,97203.73
2018-08-10T02:45:31.999Z,97174.98
2018-08-10T02:48:01.360Z,97152.39
2018-08-10T02:50:30.727Z,97182.20
2018-08-10T02:53:00.092Z,97174.84
2018-08-10T02:55:29.462Z,97184.53
2018-08-10T02:57:58.832Z,97171.49
2018-08-10T03:00:28.172Z,97201.69
2018-08-10T03:02:57.536Z,97191.89
2018-08-10T03:05:26.918Z,97204.69
2018-08-10T03:07:56.261Z,97213.25
2018-08-10T03:10:25.619Z,97200.88
2018-08-10T03:12:54.985Z,97227.63
2018-08-10T03:15:24.333Z,97191.01
2018-08-10T03:17:53.696Z,97171.41
2018-08-10T03:20:23.054Z,97213.73
2018-08-10T03:22:52.412Z,97224.73
2018-08-10T03:25:21.752Z,97198.14
2018-08-10T03:27:51.127Z,97226.45
2018-08-10T03:30:20.483Z,97234.73
2018-08-10T03:32:49.886Z,97190.34
2018-08-10T03:35:25.552Z,97109.41
2018-08-10T03:37:54.912Z,97236.63
2018-08-10T03:40:24.268Z,97226.67
2018-08-10T03:42:53.635Z,97200.11
2018-08-10T03:45:23.003Z,97220.09
2018-08-10T03:47:52.355Z,97177.52
2018-08-10T03:50:21.712Z,97225.42
2018-08-10T03:52:51.090Z,97226.50
2018-08-10T03:55:20.440Z,97203.53
2018-08-10T03:57:49.818Z,97227.33
2018-08-10T04:00:19.191Z,97232.59
2018-08-10T04:02:48.544Z,97231.63
2018-08-10T04:05:17.901Z,97251.58
2018-08-10T04:07:47.284Z,97240.79
2018-08-10T04:10:16.641Z,97250.19
2018-08-10T04:12:46.008Z,97246.03
2018-08-10T04:15:15.361Z,97256.33
2018-08-10T04:17:44.725Z,97139.73
2018-08-10T04:20:14.097Z,97264.57
2018-08-10T04:22:43.445Z,97283.97
2018-08-10T04:25:12.800Z,97280.86
2018-08-10T04:27:42.185Z,97266.02
2018-08-10T04:30:12.076Z,97303.19
2018-08-10T04:32:41.439Z,97269.20
2018-08-10T04:35:11.075Z,97263.19
2018-08-10T04:37:40.440Z,97278.20
2018-08-10T04:40:11.584Z,97295.91
2018-08-10T04:42:41.039Z,97313.44
2018-08-10T04:45:10.488Z,97286.38
2018-08-10T04:47:45.020Z,97294.92
2018-08-10T04:50:14.401Z,97288.17
2018-08-10T04:52:43.776Z,97351.48
2018-08-10T04:55:13.582Z,97334.39
2018-08-10T04:57:42.924Z,97324.59
2018-08-10T05:00:14.223Z,97340.73
2018-08-10T05:02:43.584Z,97347.38
2018-08-10T05:05:12.963Z,97328.64
2018-08-10T05:07:43.099Z,97346.17
2018-08-10T05:10:12.461Z,97311.92
2018-08-10T05:12:42.048Z,97364.37
2018-08-10T05:15:12.108Z,97353.63
2018-08-10T05:17:41.451Z,97349.97
2018-08-10T05:20:11.697Z,97366.18
2018-08-10T05:22:41.902Z,97371.96
2018-08-10T05:25:11.270Z,97384.11
2018-08-10T05:27:40.622Z,97358.22
2018-08-10T05:30:10.936Z,97402.31
2018-08-10T05:32:40.651Z,97386.23
2018-08-10T05:35:10.673Z,97376.11
2018-08-10T05:37:40.099Z,97390.50
2018-08-10T05:40:10.488Z,97390.08
2018-08-10T05:42:39.841Z,97426.19
2018-08-10T05:45:09.505Z,97416.20
2018-08-10T05:47:38.879Z,97433.75
2018-08-10T05:50:09.037Z,97457.53
2018-08-10T05:52:38.443Z,97472.13
2018-08-10T05:55:08.141Z,97402.11
2018-08-10T05:57:37.687Z,97456.60
2018-08-10T06:00:08.069Z,97448.67
2018-08-10T06:02:37.436Z,97454.64
2018-08-10T06:05:07.080Z,97455.64
2018-08-10T06:07:36.772Z,97487.05
2018-08-10T06:10:08.302Z,97472.80
2018-08-10T06:12:37.678Z,97453.32
2018-08-10T06:15:09.205Z,97451.75
2018-08-10T06:17:38.565Z,97452.78
2018-08-10T06:20:10.503Z,97629.50
2018-08-10T06:22:39.905Z,97473.61
2018-08-10T06:25:09.620Z,97464.80
2018-08-10T06:27:38.962Z,97475.34
2018-08-10T06:30:11.548Z,97476.34
2018-08-10T06:32:41.154Z,97476.79
2018-08-10T06:35:10.541Z,97472.28
2018-08-10T06:37:39.891Z,97484.55
2018-08-10T06:40:09.257Z,97495.83
2018-08-10T06:42:38.620Z,97501.80
2018-08-10T06:45:08.248Z,97486.79
2018-08-10T06:47:37.880Z,97492.03
2018-08-10T06:50:07.735Z,97509.35
2018-08-10T06:52:37.047Z,97521.95
2018-08-10T06:55:06.412Z,97521.43
2018-08-10T06:57:36.204Z,97499.34
2018-08-10T07:00:07.532Z,97501.39
2018-08-10T07:02:36.925Z,97511.56
2018-08-10T07:05:07.027Z,97521.30
2018-08-10T07:07:36.517Z,97500.63
2018-08-10T07:10:07.400Z,97512.72
2018-08-10T07:12:36.748Z,97519.44
2018-08-10T07:15:06.290Z,97513.80
2018-08-10T07:17:35.670Z,97498.73
2018-08-10T07:20:05.717Z,97497.24
2018-08-10T07:22:35.089Z,97496.05
2018-08-10T07:25:04.763Z,97285.48
2018-08-10T07:27:34.188Z,97508.41
2018-08-10T07:30:03.622Z,97517.08
2018-08-10T07:32:32.978Z,97530.59
2018-08-10T07:35:02.323Z,97495.36
2018-08-10T07:37:31.688Z,97514.75
2018-08-10T07:40:01.065Z,97514.80
2018-08-10T07:42:30.963Z,97527.92
2018-08-10T07:45:00.326Z,97543.04
2018-08-10T07:47:29.680Z,97471.20
2018-08-10T07:49:59.009Z,97494.09
2018-08-10T07:52:28.368Z,97514.19
2018-08-10T07:54:57.717Z,97494.05
2018-08-10T07:57:27.093Z,97491.47
2018-08-10T07:59:56.449Z,97522.47
2018-08-10T08:02:25.841Z,97504.06
2018-08-10T08:04:55.208Z,97551.36
2018-08-10T08:07:24.571Z,97530.92
2018-08-10T08:09:53.936Z,97516.14
2018-08-10T08:12:23.316Z,97520.26
2018-08-10T08:14:52.659Z,97501.70
2018-08-10T08:17:22.033Z,97527.19
2018-08-10T08:19:51.422Z,97500.59
2018-08-10T08:22:21.806Z,97518.81
2018-08-10T08:24:51.219Z,97506.70
2018-08-10T08:27:20.679Z,97512.31
2018-08-10T08:29:50.044Z,97493.47
2018-08-10T08:32:19.455Z,97514.58
2018-08-10T08:34:48.833Z,97524.20
2018-08-10T08:37:18.221Z,97526.21
2018-08-10T08:40:30.279Z,97435.09
2018-08-10T08:42:59.657Z,97533.31
2018-08-10T08:45:44.459Z,97530.17
2018-08-10T08:48:13.715Z,97507.41
2018-08-10T08:50:46.459Z,97502.38
2018-08-10T08:53:15.852Z,97514.52
2018-08-10T08:55:52.445Z,97496.25
2018-08-10T08:58:22.252Z,97513.09
2018-08-10T09:00:51.651Z,97483.73
2018-08-10T09:03:38.576Z,97518.40
2018-08-10T09:06:08.305Z,97534.06
2018-08-10T09:08:37.668Z,97544.89
2018-08-10T09:11:08.408Z,97530.05
2018-08-10T09:14:49.903Z,97515.39
2018-08-10T09:17:19.357Z,97508.94
2018-08-10T09:19:48.660Z,97528.61
2018-08-10T09:22:18.040Z,97504.37
2018-08-10T09:24:47.433Z,97529.09
2018-08-10T09:27:16.793Z,97496.42
2018-08-10T09:29:46.936Z,97501.77
2018-08-10T09:32:16.315Z,97492.69
2018-08-10T09:34:45.672Z,97483.64
2018-08-10T09:37:15.058Z,97510.09
2018-08-10T09:39:44.433Z,97507.34
2018-08-10T09:42:13.850Z,97530.02
2018-08-10T09:44:43.187Z,97510.08
2018-08-10T09:47:12.536Z,97498.95
2018-08-10T09:49:49.246Z,97485.34
2018-08-10T09:52:18.629Z,97398.76
2018-08-10T09:55:51.666Z,97502.48
2018-08-10T09:58:21.053Z,97486.37
2018-08-10T10:00:56.467Z,97528.45
2018-08-10T10:03:26.490Z,97463.51
2018-08-10T10:05:57.206Z,97488.12
2018-08-10T10:08:27.009Z,97501.52
2018-08-10T10:10:56.401Z,97499.19
2018-08-10T10:13:25.761Z,97491.58
2018-08-10T10:15:55.119Z,97473.17
2018-08-10T10:18:24.489Z,97505.98
2018-08-10T10:20:53.910Z,97479.53
2018-08-10T10:23:23.209Z,97499.40
2018-08-10T10:25:52.570Z,97470.56
2018-08-10T10:28:21.922Z,97473.58
2018-08-10T10:30:51.318Z,97471.94
2018-08-10T10:33:20.674Z,97483.39
2018-08-10T10:35:50.051Z,97484.60
2018-08-10T10:38:19.405Z,97481.80
2018-08-10T10:40:48.774Z,97457.95
2018-08-10T10:43:18.121Z,97479.13
2018-08-10T10:45:47.490Z,97487.28
2018-08-10T10:48:16.853Z,97468.92
2018-08-10T10:50:46.276Z,97465.33
2018-08-10T10:53:15.603Z,97445.95
2018-08-10T10:55:44.964Z,97464.66
2018-08-10T10:58:14.303Z,97453.22
2018-08-10T11:00:43.669Z,97462.75
2018-08-10T11:03:13.009Z,97440.92
2018-08-10T11:05:42.385Z,97448.86
2018-08-10T11:08:11.792Z,97465.64
2018-08-10T11:10:41.167Z,97465.41
2018-08-10T11:13:10.543Z,97436.73
2018-08-10T11:15:39.913Z,97476.88
2018-08-10T11:18:09.526Z,97469.55
2018-08-10T11:20:38.882Z,97468.58
2018-08-10T11:23:08.270Z,97460.36
2018-08-10T11:25:37.746Z,97456.48
2018-08-10T11:28:07.084Z,97462.06
2018-08-10T11:30:36.441Z,97463.04
2018-08-10T11:33:05.825Z,97452.86
2018-08-10T11:35:35.178Z,97450.92
2018-08-10T11:38:04.542Z,97449.33
2018-08-10T11:40:33.913Z,97447.99
2018-08-10T11:43:03.277Z,97439.06
2018-08-10T11:45:32.656Z,97348.95
2018-08-10T11:48:02.020Z,97453.25
2018-08-10T11:50:31.372Z,97455.53
2018-08-10T11:53:00.750Z,97484.73
2018-08-10T11:55:30.110Z,97453.50
2018-08-10T11:57:59.468Z,97477.85
2018-08-10T12:00:28.821Z,97454.84
2018-08-10T12:02:58.189Z,97432.75
2018-08-10T12:05:27.525Z,97452.09
2018-08-10T12:07:56.884Z,97472.91
2018-08-10T12:10:26.309Z,97475.43
2018-08-10T12:12:55.702Z,97481.25
2018-08-10T12:15:25.025Z,97434.09
2018-08-10T12:17:54.385Z,97462.61
2018-08-10T12:20:23.740Z,97452.12
2018-08-10T12:22:53.104Z,97465.58
2018-08-10T12:25:22.469Z,97446.93
2018-08-10T12:27:51.850Z,97461.95
2018-08-10T12:30:21.224Z,97455.50
2018-08-10T12:32:50.568Z,97441.94
2018-08-10T12:35:19.921Z,97422.61
2018-08-10T12:37:49.267Z,97466.99
2018-08-10T12:40:18.616Z,97464.16
2018-08-10T12:42:47.984Z,97434.81
2018-08-10T12:45:17.332Z,97463.86
2018-08-10T12:47:46.798Z,97428.90
2018-08-10T12:50:16.039Z,97416.93
2018-08-10T12:52:45.382Z,97451.55
2018-08-10T12:55:14.747Z,97460.00
2018-08-10T12:57:44.100Z,97463.33
2018-08-10T13:00:13.501Z,97441.45
2018-08-10T13:02:43.285Z,97454.95
2018-08-10T13:05:12.599Z,97412.20
2018-08-10T13:07:41.928Z,97447.08
2018-08-10T13:10:12.358Z,97416.73
2018-08-10T13:12:41.719Z,97413.07
2018-08-10T13:15:12.627Z,97446.91
2018-08-10T13:17:41.987Z,97425.05
2018-08-10T13:20:13.575Z,97375.52
2018-08-10T13:22:43.140Z,97424.25
2018-08-10T13:25:12.571Z,97422.27
2018-08-10T13:27:41.922Z,97431.15
2018-08-10T13:30:12.496Z,97415.50
2018-08-10T13:32:41.849Z,97395.16
2018-08-10T13:35:11.249Z,97422.55
2018-08-10T13:37:40.608Z,97416.07
2018-08-10T13:40:09.966Z,97401.45
2018-08-10T13:42:39.297Z,97414.10
2018-08-10T13:45:12.137Z,97410.86
2018-08-10T13:47:41.785Z,97405.62
2018-08-10T13:50:14.256Z,97396.02
2018-08-10T13:52:43.698Z,97407.96
2018-08-10T13:55:17.760Z,97359.34
2018-08-10T13:57:48.092Z,97393.09
2018-08-10T14:00:22.832Z,97419.16
2018-08-10T14:02:54.272Z,97360.08
2018-08-10T14:05:24.400Z,97353.62
2018-08-10T14:07:54.401Z,97420.69
2018-08-10T14:10:23.780Z,97386.72
2018-08-10T14:12:53.134Z,97364.92
2018-08-10T14:15:22.491Z,97399.84
2018-08-10T14:17:51.831Z,97359.67
2018-08-10T14:20:21.193Z,97399.08
2018-08-10T14:22:50.535Z,97363.69
2018-08-10T14:25:19.893Z,97362.83
2018-08-10T14:27:49.269Z,97436.84
2018-08-10T14:30:18.636Z,97352.56
2018-08-10T14:32:47.985Z,97417.13
2018-08-10T14:35:17.377Z,97279.04
2018-08-10T14:37:46.723Z,97385.33
2018-08-10T14:40:16.112Z,97369.73
2018-08-10T14:42:45.472Z,97379.45
2018-08-10T14:45:15.959Z,97328.59
2018-08-10T14:47:45.420Z,97430.87
2018-08-10T14:50:15.471Z,97323.98
2018-08-10T14:52:44.826Z,97356.27
2018-08-10T14:55:17.650Z,97343.94
2018-08-10T14:57:47.000Z,97340.01
2018-08-10T15:00:19.676Z,97341.27
2018-08-10T15:02:49.449Z,97364.89
2018-08-10T15:05:18.968Z,97345.20
2018-08-10T15:07:48.328Z,97361.88
2018-08-10T15:10:18.269Z,97382.52
2018-08-10T15:12:48.176Z,97360.97
2018-08-10T15:15:19.465Z,97342.83
2018-08-10T15:17:49.139Z,97340.34
2018-08-10T15:20:20.404Z,97327.27
2018-08-10T15:22:49.792Z,97332.95
2018-08-10T15:25:19.144Z,97342.42
2018-08-10T15:27:48.479Z,97340.59
2018-08-10T15:30:18.811Z,97337.08
2018-08-10T15:32:48.156Z,97369.16
2018-08-10T15:35:17.920Z,97344.86
2018-08-10T15:37:47.270Z,97324.16
2018-08-10T15:40:18.476Z,97331.09
2018-08-10T15:42:47.844Z,97342.24
2018-08-10T15:45:17.892Z,97338.44
2018-08-10T15:47:47.589Z,97334.06
2018-08-10T15:50:16.988Z,97331.67
2018-08-10T15:52:46.715Z,97310.59
2018-08-10T15:55:16.294Z,97091.63
2018-08-10T15:57:45.667Z,97309.14
2018-08-10T16:00:20.577Z,97299.04
2018-08-10T16:02:50.163Z,97319.53
2018-08-10T16:05:19.531Z,97351.48
2018-08-10T16:07:48.892Z,97327.10
2018-08-10T16:10:18.228Z,97363.64
2018-08-10T16:12:47.589Z,97299.47
2018-08-10T16:15:18.797Z,97319.30
2018-08-10T16:17:48.174Z,97314.48
2018-08-10T16:20:21.085Z,97313.95
2018-08-10T16:22:50.698Z,97306.78
2018-08-10T16:25:20.071Z,97316.53
2018-08-10T16:27:49.482Z,97300.98
2018-08-10T16:30:18.847Z,97312.20
2018-08-10T16:32:48.192Z,97324.20
2018-08-10T16:35:17.563Z,97320.79
2018-08-10T16:37:47.627Z,97278.07
2018-08-10T16:40:18.400Z,97336.47
2018-08-10T16:42:47.781Z,97328.72
2018-08-10T16:45:17.123Z,97317.77
2018-08-10T16:47:46.476Z,97312.58
2018-08-10T16:50:17.601Z,97297.14
2018-08-10T16:52:47.141Z,97274.59
2018-08-10T16:55:17.944Z,97290.38
2018-08-10T16:57:47.965Z,97279.81
2018-08-10T17:00:19.328Z,97323.90
2018-08-10T17:02:49.020Z,97294.25
2018-08-10T17:05:18.437Z,97320.73
2018-08-10T17:07:47.748Z,97310.55
2018-08-10T17:10:17.099Z,97287.20
2018-08-10T17:12:46.841Z,97309.73
2018-08-10T17:15:18.301Z,97284.97
2018-08-10T17:17:48.304Z,97278.33
2018-08-10T17:20:18.217Z,97317.61
2018-08-10T17:22:47.625Z,97332.00
2018-08-10T17:25:19.223Z,97288.70
2018-08-10T17:27:48.651Z,97305.58
2018-08-10T17:30:19.295Z,97313.52
2018-08-10T17:32:48.660Z,97279.56
2018-08-10T17:35:18.195Z,97284.27
2018-08-10T17:37:47.946Z,97305.72
2018-08-10T17:40:17.285Z,97217.18
2018-08-10T17:42:46.636Z,97306.19
2018-08-10T17:45:17.150Z,97320.80
2018-08-10T17:47:46.520Z,97285.60
2018-08-10T17:50:19.439Z,97247.86
2018-08-10T17:52:51.204Z,97324.23
2018-08-10T17:55:20.807Z,97334.44
2018-08-10T17:57:50.171Z,97311.17
2018-08-10T18:00:26.365Z,97304.13
2018-08-10T18:02:55.711Z,97319.55
2018-08-10T18:05:26.509Z,97301.08
2018-08-10T18:08:26.619Z,97324.66
2018-08-10T18:10:55.973Z,97315.12
2018-08-10T18:13:25.327Z,97317.19
2018-08-10T18:15:54.695Z,97332.53
2018-08-10T18:18:24.047Z,97216.91
2018-08-10T18:20:53.387Z,97318.99
2018-08-10T18:23:22.785Z,97293.69
2018-08-10T18:25:52.125Z,97337.53
2018-08-10T18:28:21.500Z,97327.49
2018-08-10T18:30:50.859Z,97317.63
2018-08-10T18:33:20.352Z,97344.19
2018-08-10T18:35:49.712Z,97336.29
2018-08-10T18:38:19.069Z,97324.08
2018-08-10T18:40:48.536Z,97297.96
2018-08-10T18:43:17.881Z,97324.49
2018-08-10T18:45:47.247Z,97310.53
2018-08-10T18:48:16.627Z,97329.84
2018-08-10T18:50:46.022Z,97342.12
2018-08-10T18:53:15.344Z,97322.98
2018-08-10T18:55:44.715Z,97346.14
2018-08-10T18:58:14.052Z,97332.31
2018-08-10T19:00:43.462Z,97348.36
2018-08-10T19:03:12.831Z,97342.41
2018-08-10T19:05:42.543Z,97344.66
2018-08-10T19:08:12.027Z,97338.08
2018-08-10T19:10:41.414Z,97358.31
2018-08-10T19:13:10.748Z,97344.27
2018-08-10T19:15:40.108Z,97343.98
2018-08-10T19:18:09.583Z,97348.59
2018-08-10T19:20:38.951Z,97354.84
2018-08-10T19:23:08.297Z,97360.70
2018-08-10T19:25:44.288Z,97320.77
2018-08-10T19:28:13.659Z,97312.73
2018-08-10T19:30:43.007Z,97356.77
2018-08-10T19:33:12.348Z,97361.97
2018-08-10T19:35:41.703Z,97362.51
2018-08-10T19:38:11.091Z,97303.58
2018-08-10T19:40:40.443Z,97339.83
2018-08-10T19:43:09.805Z,97354.97
2018-08-10T19:45:39.159Z,97371.85
2018-08-10T19:48:09.194Z,97366.36
2018-08-10T19:50:38.543Z,97377.19
2018-08-10T19:53:07.896Z,97339.06
2018-08-10T19:55:37.241Z,97348.63
2018-08-10T19:58:06.988Z,97354.75
2018-08-10T20:00:36.344Z,97254.44
2018-08-10T20:03:05.692Z,97365.69
2018-08-10T20:05:35.041Z,97353.48
2018-08-10T20:08:04.400Z,97341.80
2018-08-10T20:10:33.736Z,97366.98
2018-08-10T20:13:03.084Z,97433.18
2018-08-10T20:15:32.506Z,97363.45
2018-08-10T20:18:01.805Z,97356.82
2018-08-10T20:20:31.149Z,97375.64
2018-08-10T20:23:00.512Z,97331.39
2018-08-10T20:25:29.861Z,97364.23
2018-08-10T20:27:59.220Z,97347.01
2018-08-10T20:30:29.317Z,97340.89
2018-08-10T20:32:58.669Z,97341.91
2018-08-10T20:35:28.015Z,97330.83
2018-08-10T20:37:57.367Z,97353.31
2018-08-10T20:40:26.712Z,97414.22
2018-08-10T20:42:56.082Z,97347.56
2018-08-10T20:45:25.459Z,97326.02
2018-08-10T20:47:54.820Z,97346.37
2018-08-10T20:50:25.361Z,97340.91
2018-08-10T20:52:54.681Z,97339.95
2018-08-10T20:55:24.032Z,97349.36
2018-08-10T20:57:53.384Z,97330.01
2018-08-10T21:00:22.743Z,97343.38
2018-08-10T21:02:52.097Z,97327.39
2018-08-10T21:05:21.440Z,97359.61
2018-08-10T21:07:50.802Z,97332.08
2018-08-10T21:10:20.137Z,97336.94
2018-08-10T21:12:49.504Z,97337.45
2018-08-10T21:15:18.860Z,97343.33
2018-08-10T21:17:48.272Z,97355.08
2018-08-10T21:20:18.365Z,97343.86
2018-08-10T21:22:47.723Z,97382.62
2018-08-10T21:25:17.079Z,97371.02
2018-08-10T21:27:46.432Z,97373.22
2018-08-10T21:30:18.550Z,97298.23
2018-08-10T21:32:48.560Z,97336.06
2018-08-10T21:35:18.034Z,97353.69
2018-08-10T21:37:47.418Z,97485.31
2018-08-10T21:40:16.772Z,97357.69
2018-08-10T21:42:46.140Z,97347.53
2018-08-10T21:45:15.503Z,97352.36
2018-08-10T21:47:44.848Z,97341.86
2018-08-10T21:50:15.292Z,97363.29
2018-08-10T21:52:45.523Z,97351.34
2018-08-10T21:55:14.873Z,97375.27
2018-08-10T21:57:44.217Z,97338.70
2018-08-10T22:00:38.448Z,97327.69
2018-08-10T22:03:09.953Z,97372.27
2018-08-10T22:05:39.453Z,97346.83
2018-08-10T22:08:09.435Z,97346.69
2018-08-10T22:10:39.179Z,97357.11
2018-08-10T22:13:12.596Z,97338.83
2018-08-10T22:15:47.638Z,97329.70
2018-08-10T22:18:22.125Z,97338.13
2018-08-10T22:20:51.476Z,97363.73
2018-08-10T22:23:20.827Z,97340.11
2018-08-10T22:25:50.334Z,97329.73
2018-08-10T22:28:19.660Z,97348.83
2018-08-10T22:30:49.020Z,97339.70
2018-08-10T22:33:18.380Z,97326.03
2018-08-10T22:35:47.723Z,97337.05
2018-08-10T22:38:17.093Z,97331.47
2018-08-10T22:40:46.447Z,97338.38
2018-08-10T22:43:15.799Z,97353.97
2018-08-10T22:45:45.149Z,97324.05
2018-08-10T22:48:14.523Z,97337.20
2018-08-10T22:50:43.893Z,97330.80
2018-08-10T22:53:13.229Z,97349.00
2018-08-10T22:55:42.563Z,97354.00
2018-08-10T22:58:11.901Z,97341.45
2018-08-10T23:00:41.760Z,97337.25
2018-08-10T23:03:11.159Z,97320.06
2018-08-10T23:05:40.455Z,97333.27
2018-08-10T23:08:09.948Z,97354.13
2018-08-10T23:10:39.295Z,97331.27
2018-08-10T23:13:08.639Z,97312.82
2018-08-10T23:15:37.993Z,97339.22
2018-08-10T23:18:08.581Z,97342.78
2018-08-10T23:20:37.907Z,97329.88
2018-08-10T23:23:07.255Z,97327.57
2018-08-10T23:25:36.593Z,97335.61
2018-08-10T23:28:06.120Z,97304.84
2018-08-10T23:30:35.545Z,97317.56
2018-08-10T23:33:04.814Z,97325.36
2018-08-10T23:35:34.152Z,97323.64
2018-08-10T23:38:03.471Z,97314.95
2018-08-10T23:40:32.816Z,97275.48
2018-08-10T23:43:02.165Z,97316.23
2018-08-10T23:45:31.517Z,97310.93
2018-08-10T23:48:00.860Z,97300.03
2018-08-10T23:50:30.201Z,97285.97
2018-08-10T23:52:59.542Z,97310.78
2018-08-10T23:55:28.975Z,97289.77
2018-08-10T23:57:58.314Z,97320.44
